createdAt,value
2019-03-11T00:03:50.147Z,6.45
2019-03-11T00:08:56.533Z,6.22
2019-03-11T00:14:02.946Z,5.53
2019-03-11T00:19:09.134Z,5.78
2019-03-11T00:24:16.883Z,5.65
2019-03-11T00:29:23.204Z,5.97
2019-03-11T00:34:29.494Z,5.67
2019-03-11T00:39:35.852Z,6.33
2019-03-11T00:44:42.108Z,6.60
2019-03-11T00:49:48.340Z,6.12
2019-03-11T00:54:54.963Z,5.90
2019-03-11T01:00:01.493Z,7.78
2019-03-11T01:05:10.882Z,7.42
2019-03-11T01:10:17.202Z,6.53
2019-03-11T01:15:23.590Z,5.72
2019-03-11T01:20:29.804Z,5.10
2019-03-11T01:25:35.915Z,4.42
2019-03-11T01:30:42.241Z,4.87
2019-03-11T01:35:48.339Z,8.68
2019-03-11T01:40:54.614Z,5.62
2019-03-11T01:46:00.641Z,4.97
2019-03-11T01:51:06.753Z,4.50
2019-03-11T01:56:13.006Z,4.45
2019-03-11T02:01:19.290Z,3.77
2019-03-11T02:06:25.339Z,3.42
2019-03-11T02:11:31.346Z,2.60
2019-03-11T02:16:37.689Z,3.67
2019-03-11T02:21:43.917Z,2.98
2019-03-11T02:26:49.956Z,3.52
2019-03-11T02:31:56.022Z,3.10
2019-03-11T02:37:02.171Z,3.20
2019-03-11T02:42:08.370Z,3.30
2019-03-11T02:47:14.997Z,3.60
2019-03-11T02:52:21.280Z,3.10
2019-03-11T02:57:27.803Z,3.00
2019-03-11T03:02:47.097Z,3.10
2019-03-11T03:07:53.376Z,3.95
2019-03-11T03:12:59.494Z,3.10
2019-03-11T03:18:05.843Z,3.22
2019-03-11T03:23:12.023Z,2.72
2019-03-11T03:28:18.076Z,2.50
2019-03-11T03:33:24.093Z,3.15
2019-03-11T03:38:31.503Z,3.12
2019-03-11T03:43:38.063Z,3.25
2019-03-11T03:48:44.302Z,2.90
2019-03-11T03:53:50.426Z,2.25
2019-03-11T03:58:56.629Z,2.58
2019-03-11T04:04:02.917Z,2.45
2019-03-11T04:09:09.209Z,2.20
2019-03-11T04:14:15.637Z,2.52
2019-03-11T04:19:21.942Z,2.22
2019-03-11T04:24:28.533Z,1.62
2019-03-11T04:29:34.845Z,2.15
2019-03-11T04:34:42.114Z,2.33
2019-03-11T04:39:48.230Z,3.33
2019-03-11T04:44:54.476Z,3.50
2019-03-11T04:50:00.763Z,4.17
2019-03-11T04:55:09.644Z,7.22
2019-03-11T05:00:17.831Z,7.95
2019-03-11T05:05:23.927Z,10.30
2019-03-11T05:10:30.048Z,16.80
2019-03-11T05:15:36.269Z,34.45
2019-03-11T05:20:42.552Z,20.97
2019-03-11T05:25:48.812Z,11.68
2019-03-11T05:30:55.122Z,7.08
2019-03-11T05:36:01.483Z,10.00
2019-03-11T05:41:08.956Z,15.13
2019-03-11T05:46:15.361Z,5.45
2019-03-11T05:51:31.096Z,3.60
2019-03-11T05:56:29.977Z,3.92
2019-03-11T06:01:36.295Z,4.58
2019-03-11T06:06:42.949Z,3.05
2019-03-11T06:11:49.167Z,3.33
2019-03-11T06:16:55.364Z,3.80
2019-03-11T06:22:08.531Z,3.15
2019-03-11T06:27:14.708Z,3.42
2019-03-11T06:32:20.936Z,2.80
2019-03-11T06:37:27.103Z,2.95
2019-03-11T06:42:33.158Z,2.62
2019-03-11T06:47:39.430Z,3.33
2019-03-11T06:52:45.943Z,5.05
2019-03-11T06:57:52.216Z,3.00
2019-03-11T07:02:58.320Z,3.05
2019-03-11T07:08:04.731Z,3.15
2019-03-11T07:13:11.048Z,7.95
2019-03-11T07:18:17.346Z,7.78
2019-03-11T07:23:23.728Z,8.53
2019-03-11T07:28:30.050Z,8.75
2019-03-11T07:33:36.280Z,6.72
2019-03-11T07:38:42.588Z,6.30
2019-03-11T07:43:48.829Z,6.10
2019-03-11T07:48:55.242Z,7.37
2019-03-11T07:54:01.525Z,4.67
2019-03-11T07:59:07.858Z,3.92
2019-03-11T08:04:14.246Z,4.33
2019-03-11T08:09:20.705Z,4.60
2019-03-11T08:14:28.001Z,4.28
2019-03-11T08:19:34.277Z,4.20
2019-03-11T08:24:40.406Z,3.55
2019-03-11T08:29:46.659Z,3.22
2019-03-11T08:34:54.407Z,2.83
2019-03-11T08:40:00.713Z,3.27
2019-03-11T08:45:07.728Z,2.30
2019-03-11T08:50:14.047Z,2.65
2019-03-11T08:55:20.613Z,2.52
2019-03-11T09:00:26.897Z,2.22
2019-03-11T09:05:33.189Z,1.98
2019-03-11T09:10:39.553Z,2.25
2019-03-11T09:15:45.860Z,1.77
2019-03-11T09:20:51.994Z,1.82
2019-03-11T09:25:58.106Z,2.22
2019-03-11T09:31:04.522Z,1.65
2019-03-11T09:36:10.556Z,1.70
2019-03-11T09:41:16.750Z,1.90
2019-03-11T09:46:23.069Z,2.00
2019-03-11T09:51:29.341Z,1.70
2019-03-11T09:56:43.319Z,1.87
2019-03-11T10:01:43.257Z,2.00
2019-03-11T10:06:49.419Z,2.12
2019-03-11T10:11:55.415Z,1.75
2019-03-11T10:17:01.694Z,1.80
2019-03-11T10:22:08.307Z,2.22
2019-03-11T10:27:14.477Z,2.62
2019-03-11T10:32:20.753Z,3.00
2019-03-11T10:37:27.036Z,3.02
2019-03-11T10:42:33.321Z,2.90
2019-03-11T10:47:39.566Z,2.47
2019-03-11T10:52:45.929Z,2.52
2019-03-11T10:57:52.380Z,2.62
2019-03-11T11:02:58.961Z,2.47
2019-03-11T11:08:05.423Z,2.17
2019-03-11T11:13:11.679Z,2.17
2019-03-11T11:18:17.969Z,2.10
2019-03-11T11:23:24.104Z,2.02
2019-03-11T11:28:30.404Z,2.02
2019-03-11T11:33:36.570Z,1.80
2019-03-11T11:38:42.738Z,2.17
2019-03-11T11:43:49.243Z,2.25
2019-03-11T11:48:55.511Z,2.75
2019-03-11T11:54:01.817Z,1.77
2019-03-11T11:59:08.013Z,1.82
2019-03-11T12:04:14.348Z,1.60
2019-03-11T12:09:20.762Z,1.45
2019-03-11T12:14:27.045Z,1.70
2019-03-11T12:19:33.176Z,1.60
2019-03-11T12:24:39.534Z,1.80
2019-03-11T12:29:45.897Z,1.95
2019-03-11T12:34:52.329Z,1.60
2019-03-11T12:39:58.569Z,1.55
2019-03-11T12:45:05.409Z,1.87
2019-03-11T12:50:14.879Z,1.65
2019-03-11T12:55:23.134Z,2.12
2019-03-11T13:00:29.446Z,1.90
2019-03-11T13:05:35.630Z,1.87
2019-03-11T13:10:41.979Z,2.15
2019-03-11T13:15:48.274Z,2.20
2019-03-11T13:20:54.352Z,2.12
2019-03-11T13:26:01.071Z,1.92
2019-03-11T13:31:07.347Z,1.98
2019-03-11T13:36:13.605Z,1.95
2019-03-11T13:41:19.682Z,2.00
2019-03-11T13:46:25.992Z,2.27
2019-03-11T13:51:32.315Z,2.65
2019-03-11T13:56:38.333Z,2.30
2019-03-11T14:01:44.640Z,2.47
2019-03-11T14:06:50.767Z,2.15
2019-03-11T14:11:56.811Z,2.10
2019-03-11T14:17:03.113Z,2.37
2019-03-11T14:22:09.238Z,2.10
2019-03-11T14:27:15.365Z,2.22
2019-03-11T14:32:23.157Z,2.22
2019-03-11T14:37:29.453Z,2.70
2019-03-11T14:42:35.638Z,2.37
2019-03-11T14:47:41.994Z,1.98
2019-03-11T14:52:48.201Z,2.15
2019-03-11T14:57:54.284Z,2.50
2019-03-11T15:03:00.549Z,2.90
2019-03-11T15:08:07.162Z,2.30
2019-03-11T15:13:13.413Z,2.10
2019-03-11T15:18:20.078Z,2.70
2019-03-11T15:23:26.494Z,2.77
2019-03-11T15:28:32.543Z,3.33
2019-03-11T15:33:38.791Z,2.85
2019-03-11T15:38:45.163Z,2.05
2019-03-11T15:43:51.497Z,2.58
2019-03-11T15:48:57.952Z,3.25
2019-03-11T15:54:04.245Z,2.55
2019-03-11T15:59:10.423Z,2.80
2019-03-11T16:04:17.148Z,2.55
2019-03-11T16:09:23.384Z,2.70
2019-03-11T16:14:29.493Z,3.17
2019-03-11T16:19:35.824Z,2.72
2019-03-11T16:24:42.490Z,2.10
2019-03-11T16:29:48.527Z,3.30
2019-03-11T16:34:54.861Z,2.60
2019-03-11T16:40:03.225Z,3.30
2019-03-11T16:45:10.936Z,3.20
2019-03-11T16:50:17.744Z,3.40
2019-03-11T16:55:26.626Z,3.60
2019-03-11T17:00:36.648Z,2.45
2019-03-11T17:05:43.934Z,2.90
2019-03-11T17:10:49.931Z,2.70
2019-03-11T17:15:56.119Z,3.17
2019-03-11T17:21:02.584Z,3.02
2019-03-11T17:26:08.836Z,4.03
2019-03-11T17:31:15.246Z,3.37
2019-03-11T17:36:21.691Z,2.80
2019-03-11T17:41:28.529Z,3.17
2019-03-11T17:46:34.775Z,3.55
2019-03-11T17:51:41.202Z,2.98
2019-03-11T17:56:47.758Z,2.90
2019-03-11T18:01:53.835Z,3.20
2019-03-11T18:07:00.213Z,2.62
2019-03-11T18:12:06.710Z,3.37
2019-03-11T18:17:13.210Z,3.00
2019-03-11T18:22:19.251Z,2.77
2019-03-11T18:27:25.596Z,2.92
2019-03-11T18:32:33.913Z,2.75
2019-03-11T18:37:40.287Z,3.92
2019-03-11T18:42:46.557Z,6.67
2019-03-11T18:47:52.895Z,7.70
2019-03-11T18:52:59.144Z,11.50
2019-03-11T18:58:05.631Z,10.50
2019-03-11T19:03:11.861Z,10.10
2019-03-11T19:08:17.834Z,10.25
2019-03-11T19:13:23.994Z,32.03
2019-03-11T19:18:30.435Z,25.55
2019-03-11T19:23:37.002Z,18.25
2019-03-11T19:28:43.306Z,17.42
2019-03-11T19:33:49.810Z,11.88
2019-03-11T19:38:57.037Z,14.23
2019-03-11T19:44:03.442Z,20.77
2019-03-11T19:49:09.793Z,37.05
2019-03-11T19:54:16.015Z,29.07
2019-03-11T19:59:22.161Z,29.00
2019-03-11T20:04:28.356Z,33.38
2019-03-11T20:09:34.689Z,28.70
2019-03-11T20:14:40.742Z,30.08
2019-03-11T20:19:46.941Z,43.20
2019-03-11T20:24:53.225Z,42.03
2019-03-11T20:29:59.498Z,34.75
2019-03-11T20:35:06.302Z,27.58
2019-03-11T20:40:13.003Z,48.08
2019-03-11T20:45:19.304Z,47.58
2019-03-11T20:50:25.635Z,31.05
2019-03-11T20:55:34.107Z,34.58
2019-03-11T21:00:40.014Z,42.80
2019-03-11T21:05:46.712Z,56.65
2019-03-11T21:10:53.008Z,34.20
2019-03-11T21:15:59.245Z,28.05
2019-03-11T21:21:05.704Z,36.77
2019-03-11T21:26:12.158Z,60.65
2019-03-11T21:31:18.866Z,19.48
2019-03-11T21:36:25.147Z,9.20
2019-03-11T21:41:31.336Z,6.30
2019-03-11T21:46:38.128Z,12.43
2019-03-11T21:51:44.337Z,16.42
2019-03-11T21:56:50.732Z,25.60
2019-03-11T22:01:57.077Z,50.43
2019-03-11T22:07:03.356Z,45.25
2019-03-11T22:12:10.761Z,36.77
2019-03-11T22:17:17.551Z,29.32
2019-03-11T22:22:23.850Z,27.37
2019-03-11T22:27:30.101Z,49.95
2019-03-11T22:32:36.248Z,35.48
2019-03-11T22:37:42.402Z,27.73
2019-03-11T22:42:48.586Z,17.95
2019-03-11T22:47:55.068Z,15.03
2019-03-11T22:53:01.319Z,10.60
2019-03-11T22:58:07.572Z,14.10
2019-03-11T23:03:13.921Z,12.23
2019-03-11T23:08:20.054Z,20.77
2019-03-11T23:13:26.324Z,20.77
2019-03-11T23:18:32.466Z,30.55
2019-03-11T23:23:38.785Z,32.88
2019-03-11T23:28:44.835Z,18.25
2019-03-11T23:33:51.311Z,43.90
2019-03-11T23:38:57.635Z,27.43
2019-03-11T23:44:03.872Z,17.30
2019-03-11T23:49:10.160Z,17.45
2019-03-11T23:54:16.315Z,10.10
2019-03-11T23:59:22.335Z,11.65
